Time;durP1;ratioP1;P1;durP2;ratioP2;P2;SDS_P1;SDS_P2;PMS_P1;PMS_P2;Temp;Humidity;BMP_temperature;BMP_pressure;BME280_temperature;BME280_humidity;BME280_pressure;Samples;Min_cycle;Max_cycle;Signal;HPM_P1;HPM_P2
2021/03/25 00:01:18;;;;;;;66.10;38.87;;;8.30;77.10;;;;;;4993619;28;20069;-75
2021/03/25 00:03:47;;;;;;;71.80;40.50;;;8.20;77.00;;;;;;5009780;28;20050;-75
2021/03/25 00:06:13;;;;;;;66.27;39.70;;;8.20;77.40;;;;;;4994759;28;20018;-75
2021/03/25 00:08:38;;;;;;;70.17;39.83;;;8.10;77.50;;;;;;4994906;28;20037;-75
2021/03/25 00:11:04;;;;;;;68.33;40.53;;;8.20;78.00;;;;;;4978247;28;20386;-75
2021/03/25 00:13:30;;;;;;;69.10;41.00;;;8.20;78.40;;;;;;4994251;28;20500;-75
2021/03/25 00:15:56;;;;;;;73.27;39.93;;;8.30;78.50;;;;;;4993635;28;20158;-75
2021/03/25 00:18:21;;;;;;;74.17;40.57;;;8.40;77.90;;;;;;4994548;28;20112;-75
2021/03/25 00:20:48;;;;;;;70.83;39.90;;;8.40;77.40;;;;;;4980117;28;20128;-77
2021/03/25 00:23:15;;;;;;;69.17;39.37;;;8.30;77.30;;;;;;5017992;28;20093;-75
2021/03/25 00:25:42;;;;;;;67.63;40.10;;;8.30;77.50;;;;;;5014167;28;20022;-80
2021/03/25 00:28:10;;;;;;;66.80;39.67;;;8.40;77.70;;;;;;4994202;28;20038;-75
2021/03/25 00:30:37;;;;;;;69.57;37.93;;;8.40;77.20;;;;;;4994573;28;20022;-75
2021/03/25 00:33:05;;;;;;;69.90;39.03;;;8.30;76.90;;;;;;5011368;28;20105;-75
2021/03/25 00:35:32;;;;;;;69.33;40.23;;;8.30;77.00;;;;;;5011868;28;20084;-75
2021/03/25 00:37:58;;;;;;;65.97;39.00;;;8.20;77.10;;;;;;5011720;28;20049;-74
2021/03/25 00:40:23;;;;;;;71.33;40.50;;;8.20;77.50;;;;;;4994405;28;20061;-74
2021/03/25 00:42:49;;;;;;;67.70;39.20;;;8.20;77.80;;;;;;5010918;28;20122;-75
2021/03/25 00:45:23;;;;;;;63.60;39.43;;;8.30;77.70;;;;;;5011890;28;20030;-76
2021/03/25 00:47:49;;;;;;;66.67;39.73;;;8.30;78.00;;;;;;4992828;28;20029;-75
2021/03/25 00:50:29;;;;;;;68.40;39.37;;;8.40;77.80;;;;;;4993237;28;20080;-75
2021/03/25 00:52:55;;;;;;;65.33;38.40;;;8.40;77.20;;;;;;5009783;28;20056;-75
2021/03/25 00:55:22;;;;;;;71.67;39.57;;;8.40;77.50;;;;;;5010496;28;20033;-77
2021/03/25 00:57:48;;;;;;;64.53;39.50;;;8.50;77.40;;;;;;4992714;28;20536;-79
2021/03/25 01:00:17;;;;;;;69.07;39.20;;;8.50;77.50;;;;;;5010840;28;20034;-75
2021/03/25 01:02:43;;;;;;;67.60;38.77;;;8.60;77.30;;;;;;4993801;28;20478;-75
2021/03/25 01:05:10;;;;;;;69.87;40.13;;;8.70;77.10;;;;;;4994266;28;20034;-75
2021/03/25 01:07:36;;;;;;;65.43;38.23;;;8.70;77.00;;;;;;4994040;28;20029;-75
2021/03/25 01:10:14;;;;;;;60.73;37.23;;;8.70;77.10;;;;;;4994893;28;20038;-75
2021/03/25 01:12:40;;;;;;;63.17;37.23;;;8.80;77.30;;;;;;4993123;28;20505;-75
2021/03/25 01:15:08;;;;;;;58.37;36.23;;;8.80;77.00;;;;;;4976561;28;20026;-75
2021/03/25 01:17:36;;;;;;;63.73;37.63;;;8.80;76.60;;;;;;4993082;28;20030;-75
2021/03/25 01:20:04;;;;;;;65.70;37.60;;;8.90;76.70;;;;;;4992584;28;20034;-75
2021/03/25 01:22:30;;;;;;;65.00;37.50;;;8.90;76.60;;;;;;5009681;28;20042;-76
2021/03/25 01:24:55;;;;;;;61.87;36.93;;;9.00;76.90;;;;;;4992182;28;20085;-75
2021/03/25 01:27:21;;;;;;;65.40;38.77;;;9.00;76.80;;;;;;4995965;28;20037;-75
2021/03/25 01:29:46;;;;;;;68.10;39.93;;;9.10;76.70;;;;;;5013402;28;20417;-75
2021/03/25 01:32:12;;;;;;;70.53;40.40;;;9.10;76.70;;;;;;5013216;28;20037;-75
2021/03/25 01:34:38;;;;;;;69.87;39.17;;;9.20;76.70;;;;;;4996252;28;20393;-75
2021/03/25 01:37:04;;;;;;;74.97;40.70;;;9.20;76.70;;;;;;4979626;28;20033;-75
2021/03/25 01:39:29;;;;;;;70.27;40.40;;;9.30;76.60;;;;;;4996304;28;20038;-74
2021/03/25 01:41:55;;;;;;;68.10;40.87;;;9.30;76.50;;;;;;5012591;28;20050;-75
2021/03/25 01:44:34;;;;;;;68.97;41.13;;;9.30;76.20;;;;;;4996114;28;20484;-76
2021/03/25 01:46:59;;;;;;;72.67;42.07;;;9.10;75.70;;;;;;5012991;28;20040;-74
2021/03/25 01:49:25;;;;;;;70.27;40.80;;;9.00;76.20;;;;;;4979596;28;20030;-74
2021/03/25 01:52:06;;;;;;;71.50;40.93;;;9.00;76.70;;;;;;5012751;28;20041;-82
2021/03/25 01:55:09;;;;;;;63.87;39.40;;;9.00;76.70;;;;;;5013543;28;20121;-75
2021/03/25 01:57:41;;;;;;;67.78;39.20;;;9.00;76.70;;;;;;4994157;28;20092;-82
2021/03/25 02:00:09;;;;;;;70.60;39.43;;;8.90;76.60;;;;;;5012127;28;20095;-75
2021/03/25 02:03:17;;;;;;;66.60;37.67;;;8.70;76.60;;;;;;5012871;28;20375;-75
2021/03/25 02:06:04;;;;;;;65.27;38.80;;;8.70;77.20;;;;;;5012460;28;20034;-74
2021/03/25 02:09:04;;;;;;;68.33;38.40;;;8.70;77.40;;;;;;5013375;28;20096;-75
2021/03/25 02:12:04;;;;;;;69.27;39.53;;;8.70;77.30;;;;;;4975606;28;20042;-75
2021/03/25 02:14:51;;;;;;;67.80;38.63;;;8.70;77.40;;;;;;4995650;28;20037;-75
2021/03/25 02:17:41;;;;;;;69.80;39.00;;;8.70;77.20;;;;;;5012690;28;20073;-75
2021/03/25 02:20:56;;;;;;;65.53;37.10;;;8.70;77.20;;;;;;5011896;28;20037;-75
2021/03/25 02:23:59;;;;;;;67.90;38.83;;;8.60;77.30;;;;;;4917085;29;20039;-75
2021/03/25 02:26:49;;;;;;;67.10;38.87;;;8.60;77.50;;;;;;4933521;29;20111;-74
2021/03/25 02:29:37;;;;;;;68.17;39.77;;;8.50;77.40;;;;;;4981079;28;20046;-74
2021/03/25 02:32:08;;;;;;;69.57;39.27;;;8.40;77.70;;;;;;4994346;28;20030;-75
2021/03/25 02:34:39;;;;;;;64.90;38.00;;;8.50;77.90;;;;;;5012696;28;20347;-75
2021/03/25 02:37:32;;;;;;;67.17;38.93;;;8.50;78.00;;;;;;5010841;28;20029;-75
2021/03/25 02:40:01;;;;;;;71.53;39.67;;;8.50;78.00;;;;;;5010263;28;20045;-81
2021/03/25 02:42:33;;;;;;;69.13;40.03;;;8.40;77.70;;;;;;5012556;28;20073;-75
2021/03/25 02:45:04;;;;;;;68.45;38.80;;;8.40;77.60;;;;;;4994452;28;20022;-80
2021/03/25 02:47:33;;;;;;;65.97;38.77;;;8.30;77.60;;;;;;5012315;28;20109;-75
2021/03/25 02:50:12;;;;;;;68.43;39.73;;;8.30;77.60;;;;;;4994433;28;20116;-81
2021/03/25 02:52:43;;;;;;;63.23;34.73;;;8.30;77.80;;;;;;5012435;28;20092;-74
2021/03/25 02:55:12;;;;;;;59.63;34.60;;;8.60;79.30;;;;;;4994545;28;20030;-74
2021/03/25 02:57:56;;;;;;;58.47;35.00;;;8.80;79.60;;;;;;4994993;28;20022;-75
2021/03/25 03:00:35;;;;;;;58.03;35.73;;;9.10;79.50;;;;;;4994047;28;20026;-75
2021/03/25 03:03:22;;;;;;;59.10;34.53;;;9.30;78.90;;;;;;5012039;28;20038;-81
2021/03/25 03:05:51;;;;;;;61.33;36.23;;;9.40;78.50;;;;;;5012622;28;20105;-75
2021/03/25 03:08:25;;;;;;;60.80;36.73;;;9.50;78.10;;;;;;4994320;28;20064;-75
2021/03/25 03:11:00;;;;;;;59.60;36.90;;;9.50;77.70;;;;;;5012758;28;20042;-75
2021/03/25 03:13:28;;;;;;;66.97;38.07;;;9.50;77.50;;;;;;5012523;28;20029;-76
2021/03/25 03:16:13;;;;;;;66.90;37.93;;;9.60;77.50;;;;;;5012065;28;20469;-75
2021/03/25 03:18:52;;;;;;;69.80;39.60;;;9.50;77.10;;;;;;4994341;28;20474;-75
2021/03/25 03:21:23;;;;;;;67.53;39.77;;;9.40;77.10;;;;;;5011392;28;20022;-75
2021/03/25 03:23:50;;;;;;;72.07;40.73;;;9.40;77.20;;;;;;4994987;28;20028;-75
2021/03/25 03:26:26;;;;;;;67.07;40.63;;;9.40;76.90;;;;;;4993942;28;20101;-75
2021/03/25 03:29:03;;;;;;;74.60;42.03;;;9.40;77.00;;;;;;5012095;28;20109;-75
2021/03/25 03:31:36;;;;;;;73.70;42.03;;;9.40;77.00;;;;;;4993304;28;20038;-75
2021/03/25 03:34:07;;;;;;;71.07;41.13;;;9.40;76.80;;;;;;4994131;28;20030;-75
2021/03/25 03:36:33;;;;;;;72.60;41.47;;;9.40;76.70;;;;;;5012216;28;20118;-76
2021/03/25 03:39:06;;;;;;;74.70;42.17;;;9.40;76.60;;;;;;5011974;28;20113;-75
2021/03/25 03:41:41;;;;;;;77.78;43.20;;;9.40;76.50;;;;;;5011742;28;20030;-75
2021/03/25 03:44:11;;;;;;;75.40;44.80;;;9.40;76.40;;;;;;4993731;28;20022;-82
2021/03/25 03:46:38;;;;;;;77.53;44.27;;;9.30;76.30;;;;;;4994264;28;20488;-75
2021/03/25 03:49:18;;;;;;;78.57;45.80;;;9.30;76.40;;;;;;5011656;28;20030;-75
2021/03/25 03:52:07;;;;;;;77.77;44.57;;;9.30;76.30;;;;;;4994216;28;20037;-75
2021/03/25 03:54:33;;;;;;;76.83;44.33;;;9.30;76.40;;;;;;5011729;28;20022;-75
2021/03/25 03:57:17;;;;;;;73.30;43.33;;;9.30;76.40;;;;;;5011436;28;20022;-75
2021/03/25 03:59:51;;;;;;;75.23;43.47;;;9.30;76.30;;;;;;5012380;28;20037;-75
2021/03/25 04:02:28;;;;;;;81.30;43.80;;;9.30;76.10;;;;;;5012125;28;20054;-74
2021/03/25 04:05:22;;;;;;;72.70;42.50;;;9.20;76.10;;;;;;5012349;28;20025;-75
2021/03/25 04:07:56;;;;;;;74.87;43.57;;;9.30;76.20;;;;;;5011819;28;20026;-75
2021/03/25 04:10:45;;;;;;;76.57;42.33;;;9.30;76.10;;;;;;5011280;28;20084;-76
2021/03/25 04:13:14;;;;;;;76.40;42.23;;;9.30;76.00;;;;;;5011847;28;20026;-77
2021/03/25 04:15:45;;;;;;;72.67;41.80;;;9.50;76.10;;;;;;4994437;28;20025;-75
2021/03/25 04:18:27;;;;;;;75.00;41.50;;;9.50;75.80;;;;;;5011473;28;20030;-81
2021/03/25 04:21:11;;;;;;;73.07;43.10;;;9.50;75.60;;;;;;5011848;28;20045;-77
2021/03/25 04:23:40;;;;;;;72.63;42.97;;;9.60;75.50;;;;;;5011660;28;20038;-76
2021/03/25 04:26:25;;;;;;;73.97;43.40;;;9.60;75.20;;;;;;5011196;28;20049;-75
2021/03/25 04:29:09;;;;;;;69.33;40.77;;;9.60;75.00;;;;;;4993309;28;20038;-75
2021/03/25 04:31:36;;;;;;;71.90;41.43;;;9.70;75.00;;;;;;5010407;28;20073;-74
2021/03/25 04:34:03;;;;;;;72.63;41.97;;;9.80;74.90;;;;;;5011316;28;20537;-75
2021/03/25 04:36:34;;;;;;;73.50;41.83;;;9.80;74.80;;;;;;5010760;28;20034;-77
2021/03/25 04:39:01;;;;;;;74.40;40.57;;;9.80;74.50;;;;;;4994030;28;20025;-76
2021/03/25 04:41:29;;;;;;;68.10;40.17;;;9.80;74.60;;;;;;4993094;28;20026;-75
2021/03/25 04:44:01;;;;;;;69.37;39.87;;;9.80;74.70;;;;;;5011465;28;20113;-75
2021/03/25 04:46:41;;;;;;;69.87;41.57;;;9.80;74.50;;;;;;5010280;28;20031;-75
2021/03/25 04:49:12;;;;;;;67.47;39.83;;;9.80;74.50;;;;;;5011190;28;20113;-75
2021/03/25 04:51:37;;;;;;;69.10;40.93;;;9.90;74.60;;;;;;4992980;28;20583;-75
2021/03/25 04:54:28;;;;;;;69.83;41.00;;;9.80;74.40;;;;;;5011321;28;20037;-75
2021/03/25 04:57:00;;;;;;;63.70;38.90;;;9.90;74.50;;;;;;4993429;28;20028;-74
2021/03/25 04:59:26;;;;;;;66.47;40.30;;;9.90;74.50;;;;;;5010307;28;20052;-77
2021/03/25 05:01:52;;;;;;;67.93;40.37;;;9.90;74.30;;;;;;4994597;28;20527;-78
2021/03/25 05:04:17;;;;;;;70.70;40.17;;;9.90;74.50;;;;;;5014054;28;20513;-82
2021/03/25 05:06:53;;;;;;;67.03;40.27;;;9.90;74.50;;;;;;5014030;28;20057;-76
2021/03/25 05:09:22;;;;;;;70.47;39.53;;;9.90;74.40;;;;;;4996431;28;20462;-82
2021/03/25 05:11:48;;;;;;;62.43;37.43;;;9.90;74.40;;;;;;5014161;28;20048;-77
2021/03/25 05:14:21;;;;;;;72.57;39.43;;;9.90;74.70;;;;;;5015335;28;20489;-77
2021/03/25 05:17:29;;;;;;;63.75;37.50;;;9.90;74.50;;;;;;4996323;28;20038;-75
2021/03/25 05:20:10;;;;;;;68.60;39.17;;;10.00;74.30;;;;;;5001736;28;20030;-75
2021/03/25 05:22:58;;;;;;;68.13;38.83;;;10.00;74.20;;;;;;4994705;28;20060;-76
2021/03/25 05:25:33;;;;;;;69.23;39.57;;;10.00;74.30;;;;;;4995822;28;20030;-76
2021/03/25 05:28:18;;;;;;;70.10;39.87;;;10.00;74.20;;;;;;4996309;28;20030;-79
2021/03/25 05:30:47;;;;;;;65.53;37.47;;;10.00;74.00;;;;;;4995076;28;20034;-79
2021/03/25 05:33:16;;;;;;;69.77;39.87;;;10.10;74.00;;;;;;5013438;28;20033;-77
2021/03/25 05:35:55;;;;;;;65.23;38.90;;;10.00;74.00;;;;;;5013384;28;20478;-76
2021/03/25 05:38:22;;;;;;;61.50;37.43;;;10.10;74.10;;;;;;4995779;28;20390;-81
2021/03/25 05:41:13;;;;;;;68.00;39.13;;;10.10;74.10;;;;;;4995086;28;20030;-78
2021/03/25 05:44:25;;;;;;;65.53;39.00;;;10.10;74.00;;;;;;5003850;28;20077;-76
2021/03/25 05:46:59;;;;;;;69.30;39.87;;;10.10;73.90;;;;;;4964347;28;20038;-77
2021/03/25 05:49:36;;;;;;;64.47;38.67;;;10.00;73.90;;;;;;4995219;28;20038;-84
2021/03/25 05:52:05;;;;;;;66.53;38.10;;;10.10;74.10;;;;;;5013122;28;20129;-77
2021/03/25 05:54:49;;;;;;;69.60;39.07;;;10.10;74.20;;;;;;5013051;28;20472;-78
2021/03/25 05:57:36;;;;;;;71.10;38.93;;;10.10;74.20;;;;;;4995668;28;20030;-77
2021/03/25 06:00:13;;;;;;;65.37;39.93;;;10.10;73.90;;;;;;4995123;28;20134;-76
2021/03/25 06:02:50;;;;;;;69.27;41.70;;;10.10;73.90;;;;;;5012304;28;20108;-77
2021/03/25 06:05:16;;;;;;;71.77;42.67;;;9.90;73.90;;;;;;4995432;28;20030;-76
2021/03/25 06:08:19;;;;;;;75.80;42.80;;;9.80;74.30;;;;;;5012455;28;20022;-76
2021/03/25 06:11:19;;;;;;;72.15;40.38;;;9.60;74.50;;;;;;5012497;28;20026;-76
2021/03/25 06:13:57;;;;;;;71.57;42.50;;;9.50;75.10;;;;;;4993036;28;20033;-77
2021/03/25 06:17:01;;;;;;;72.27;42.80;;;9.50;75.30;;;;;;5012661;28;20053;-76
2021/03/25 06:19:51;;;;;;;71.30;40.45;;;9.50;75.60;;;;;;4996831;28;20095;-82
2021/03/25 06:22:19;;;;;;;70.30;41.17;;;9.50;75.50;;;;;;4999456;28;20034;-76
2021/03/25 06:25:07;;;;;;;72.23;42.07;;;9.60;75.50;;;;;;4996695;28;20037;-77
2021/03/25 06:28:20;;;;;;;71.77;42.03;;;9.70;75.40;;;;;;5012707;28;20037;-77
2021/03/25 06:31:17;;;;;;;78.23;42.63;;;9.80;75.20;;;;;;5005224;28;20054;-78
2021/03/25 06:33:58;;;;;;;75.00;43.33;;;9.80;75.00;;;;;;4994462;28;20068;-76
2021/03/25 06:36:49;;;;;;;76.03;43.50;;;9.70;75.10;;;;;;5012913;28;20026;-77
2021/03/25 06:39:26;;;;;;;74.27;42.90;;;9.60;75.30;;;;;;5012924;28;20029;-77
2021/03/25 06:41:52;;;;;;;76.67;44.83;;;9.70;75.20;;;;;;5011972;28;20156;-77
2021/03/25 06:44:25;;;;;;;75.37;42.33;;;9.70;75.00;;;;;;4994575;28;20464;-77
2021/03/25 06:47:05;;;;;;;65.87;39.37;;;9.70;75.20;;;;;;5010524;28;20183;-77
2021/03/25 06:49:50;;;;;;;71.17;41.53;;;9.90;75.30;;;;;;5011616;28;20026;-82
2021/03/25 06:52:26;;;;;;;76.07;42.40;;;10.20;74.60;;;;;;4993486;28;20033;-76
2021/03/25 06:54:59;;;;;;;71.80;42.53;;;10.30;74.10;;;;;;5011370;28;20026;-77
2021/03/25 06:57:31;;;;;;;73.63;42.00;;;10.40;73.80;;;;;;4994326;28;20137;-76
2021/03/25 06:59:58;;;;;;;75.47;42.63;;;10.60;73.50;;;;;;4993473;28;20040;-78
2021/03/25 07:02:27;;;;;;;69.20;42.30;;;10.70;72.90;;;;;;4990611;28;20062;-76
2021/03/25 07:04:57;;;;;;;73.93;43.10;;;10.80;72.70;;;;;;4991074;28;20046;-77
2021/03/25 07:07:28;;;;;;;71.00;43.50;;;10.90;72.30;;;;;;4991699;28;20033;-77
2021/03/25 07:09:56;;;;;;;72.90;42.37;;;10.90;72.20;;;;;;4991223;28;20022;-79
2021/03/25 07:12:30;;;;;;;80.63;45.40;;;10.90;72.20;;;;;;4989774;28;20203;-77
2021/03/25 07:14:56;;;;;;;72.97;42.93;;;11.00;72.00;;;;;;4986162;28;20022;-77
2021/03/25 07:17:43;;;;;;;73.23;42.33;;;11.00;71.90;;;;;;4988603;28;20038;-77
2021/03/25 07:20:30;;;;;;;71.57;43.80;;;10.90;72.00;;;;;;4990690;28;20104;-77
2021/03/25 07:23:10;;;;;;;73.17;43.33;;;11.10;72.10;;;;;;4991940;28;20517;-78
2021/03/25 07:25:50;;;;;;;71.10;42.23;;;11.00;71.80;;;;;;4985972;28;20176;-82
2021/03/25 07:28:21;;;;;;;72.97;43.17;;;11.00;71.90;;;;;;4987753;28;20038;-79
2021/03/25 07:30:48;;;;;;;68.53;42.07;;;11.10;71.80;;;;;;4984687;28;20121;-77
2021/03/25 07:33:17;;;;;;;76.30;45.67;;;11.00;71.70;;;;;;4982248;28;20522;-77
2021/03/25 07:35:49;;;;;;;69.77;42.77;;;11.00;71.70;;;;;;4985300;28;20027;-78
2021/03/25 07:38:24;;;;;;;71.03;41.47;;;11.00;71.90;;;;;;4985020;28;20033;-77
2021/03/25 07:41:09;;;;;;;77.33;45.10;;;10.90;72.20;;;;;;4984199;28;20038;-77
2021/03/25 07:44:05;;;;;;;80.67;45.77;;;11.00;72.10;;;;;;4985308;28;20081;-82
2021/03/25 07:46:49;;;;;;;75.37;43.37;;;10.90;71.80;;;;;;4986503;28;20050;-79
2021/03/25 07:49:17;;;;;;;67.33;40.47;;;11.00;72.30;;;;;;4985989;28;20225;-78
2021/03/25 07:51:53;;;;;;;65.00;39.03;;;11.30;72.40;;;;;;4987445;28;20048;-78
2021/03/25 07:54:25;;;;;;;63.73;40.07;;;11.70;71.80;;;;;;4985123;28;20022;-78
2021/03/25 07:57:05;;;;;;;66.30;39.57;;;12.10;71.00;;;;;;4985167;28;20198;-77
2021/03/25 07:59:34;;;;;;;63.40;40.37;;;12.50;70.10;;;;;;4985001;28;20034;-78
2021/03/25 08:02:00;;;;;;;62.43;39.27;;;12.80;69.30;;;;;;4996512;28;20207;-80
2021/03/25 08:04:28;;;;;;;66.60;42.10;;;13.20;68.40;;;;;;5005687;28;20037;-77
2021/03/25 08:07:07;;;;;;;67.20;41.53;;;13.40;67.70;;;;;;5004506;28;20029;-81
2021/03/25 08:09:55;;;;;;;65.50;42.27;;;13.70;66.90;;;;;;5004982;28;20116;-78
2021/03/25 08:12:33;;;;;;;65.28;41.55;;;13.70;66.70;;;;;;5005928;28;20025;-78
2021/03/25 08:15:32;;;;;;;63.35;42.28;;;13.80;66.60;;;;;;5004849;28;20032;-78
2021/03/25 08:18:10;;;;;;;70.40;46.08;;;14.00;66.00;;;;;;5005393;28;20053;-78
2021/03/25 08:20:49;;;;;;;72.78;44.80;;;14.20;65.40;;;;;;5007522;28;20111;-78
2021/03/25 08:23:33;;;;;;;75.78;46.70;;;14.30;65.20;;;;;;5008911;28;20088;-77
2021/03/25 08:26:21;;;;;;;70.47;44.45;;;14.40;65.00;;;;;;5007421;28;20026;-78
2021/03/25 08:29:08;;;;;;;66.85;45.30;;;14.60;64.70;;;;;;5010097;28;20041;-78
2021/03/25 08:31:55;;;;;;;72.53;43.83;;;14.70;64.00;;;;;;4992660;28;20026;-77
2021/03/25 08:34:44;;;;;;;69.13;44.03;;;14.80;63.50;;;;;;5010481;28;20018;-77
2021/03/25 08:37:18;;;;;;;68.10;42.20;;;14.80;63.80;;;;;;5012915;28;20034;-80
2021/03/25 08:39:56;;;;;;;62.50;41.20;;;14.90;63.50;;;;;;5014825;28;20496;-84
2021/03/25 08:42:25;;;;;;;62.53;39.63;;;15.20;63.30;;;;;;5015168;28;20040;-77
2021/03/25 08:45:09;;;;;;;65.07;39.85;;;15.60;63.00;;;;;;5013831;28;20029;-76
2021/03/25 08:47:42;;;;;;;57.53;38.50;;;16.10;61.80;;;;;;5014255;28;20484;-77
2021/03/25 08:50:25;;;;;;;61.80;37.75;;;16.90;60.30;;;;;;4994297;28;20807;-74
2021/03/25 08:52:53;;;;;;;56.88;37.03;;;17.60;58.40;;;;;;4995291;28;20026;-73
2021/03/25 08:55:38;;;;;;;52.80;36.42;;;18.10;56.20;;;;;;5015563;28;20068;-76
2021/03/25 08:58:11;;;;;;;52.28;35.75;;;18.60;54.70;;;;;;4995048;28;20934;-77
2021/03/25 09:00:40;;;;;;;49.67;35.15;;;19.10;53.00;;;;;;4995961;28;20034;-75
2021/03/25 09:03:25;;;;;;;46.80;33.65;;;19.70;52.00;;;;;;4977564;28;20281;-75
2021/03/25 09:06:04;;;;;;;50.22;33.17;;;20.30;50.10;;;;;;4996913;28;20065;-76
2021/03/25 09:08:33;;;;;;;47.63;34.22;;;20.70;49.90;;;;;;5015455;28;20091;-76
2021/03/25 09:11:06;;;;;;;47.95;32.55;;;21.10;47.60;;;;;;5020805;28;20109;-76
2021/03/25 09:13:56;;;;;;;45.42;31.60;;;21.20;47.20;;;;;;5014573;28;20036;-76
2021/03/25 09:16:31;;;;;;;43.15;28.80;;;21.30;46.80;;;;;;5001422;28;20038;-76
2021/03/25 09:18:57;;;;;;;44.25;28.45;;;21.50;45.90;;;;;;5013546;28;20032;-80
2021/03/25 09:21:27;;;;;;;38.03;27.45;;;21.80;45.50;;;;;;5014738;28;20025;-77
2021/03/25 09:23:59;;;;;;;42.33;30.02;;;21.90;45.60;;;;;;5013693;28;20034;-77
2021/03/25 09:26:25;;;;;;;40.75;28.40;;;22.00;45.10;;;;;;4996380;28;20490;-79
2021/03/25 09:29:02;;;;;;;39.42;29.20;;;22.40;44.70;;;;;;5013269;28;20113;-83
2021/03/25 09:31:57;;;;;;;43.72;29.77;;;22.70;42.30;;;;;;5014041;28;20038;-78
2021/03/25 09:34:22;;;;;;;36.28;27.60;;;22.70;43.00;;;;;;5013556;28;20018;-77
2021/03/25 09:37:05;;;;;;;37.97;27.25;;;22.80;42.70;;;;;;5013882;28;20026;-79
2021/03/25 09:39:36;;;;;;;35.88;26.33;;;22.90;42.30;;;;;;4996879;28;20029;-76
2021/03/25 09:42:23;;;;;;;41.38;27.52;;;22.70;42.80;;;;;;5013924;28;20034;-78
2021/03/25 09:44:50;;;;;;;37.67;27.20;;;22.50;42.90;;;;;;5014542;28;20026;-77
2021/03/25 09:47:29;;;;;;;39.90;27.15;;;22.20;43.40;;;;;;5013950;28;20026;-76
2021/03/25 09:50:01;;;;;;;34.45;24.50;;;22.00;44.40;;;;;;5014029;28;20029;-79
2021/03/25 09:52:38;;;;;;;37.33;24.93;;;21.70;44.50;;;;;;5014064;28;20373;-77
2021/03/25 09:55:03;;;;;;;33.65;25.02;;;21.50;44.40;;;;;;4995986;28;20618;-78
2021/03/25 09:57:29;;;;;;;36.22;25.60;;;21.40;44.60;;;;;;5013789;28;20105;-76
2021/03/25 10:00:01;;;;;;;32.05;23.52;;;21.20;44.00;;;;;;5013649;28;20037;-83
2021/03/25 10:02:45;;;;;;;32.35;21.33;;;20.80;45.30;;;;;;4995932;28;20046;-76
2021/03/25 10:05:30;;;;;;;32.67;21.35;;;20.90;46.30;;;;;;5013937;28;20021;-77
2021/03/25 10:07:58;;;;;;;28.13;19.45;;;21.00;45.10;;;;;;5013573;28;20520;-81
2021/03/25 10:10:44;;;;;;;24.27;17.83;;;20.90;45.30;;;;;;5013733;28;20022;-76
2021/03/25 10:13:13;;;;;;;22.20;16.98;;;21.10;45.50;;;;;;5013006;28;20034;-76
2021/03/25 10:16:03;;;;;;;25.65;17.17;;;21.30;45.10;;;;;;5013992;28;20045;-76
2021/03/25 10:18:32;;;;;;;24.27;16.10;;;21.50;44.30;;;;;;5013451;28;20034;-77
2021/03/25 10:21:02;;;;;;;22.85;16.95;;;21.40;43.70;;;;;;5012303;28;20056;-82
2021/03/25 10:23:36;;;;;;;27.50;16.58;;;21.60;44.10;;;;;;5012672;28;20041;-78
2021/03/25 10:26:04;;;;;;;22.42;15.85;;;22.40;42.90;;;;;;4994203;28;20358;-76
2021/03/25 10:28:34;;;;;;;18.70;13.25;;;22.40;41.70;;;;;;5012882;28;20038;-79
2021/03/25 10:31:26;;;;;;;22.75;14.15;;;22.30;42.80;;;;;;5012228;28;20095;-82
2021/03/25 10:33:56;;;;;;;20.17;14.17;;;22.30;42.80;;;;;;5012697;28;20387;-77
2021/03/25 10:36:32;;;;;;;18.63;13.70;;;22.40;42.00;;;;;;5011877;28;20034;-76
2021/03/25 10:39:01;;;;;;;18.40;14.02;;;22.60;41.70;;;;;;5012663;28;20026;-84
2021/03/25 10:41:35;;;;;;;16.85;11.02;;;22.70;41.80;;;;;;5012894;28;20113;-76
2021/03/25 10:44:23;;;;;;;16.27;11.07;;;22.60;41.40;;;;;;5012930;28;20033;-81
2021/03/25 10:46:48;;;;;;;15.85;11.05;;;22.80;40.70;;;;;;4995751;28;20382;-76
2021/03/25 10:49:18;;;;;;;17.10;11.30;;;22.90;40.80;;;;;;4995230;28;20022;-76
2021/03/25 10:51:47;;;;;;;15.13;11.40;;;22.40;40.70;;;;;;5012905;28;20497;-75
2021/03/25 10:54:22;;;;;;;17.45;12.40;;;21.80;41.70;;;;;;5012879;28;20343;-75
2021/03/25 10:56:54;;;;;;;16.65;11.85;;;21.50;42.20;;;;;;4995709;28;20026;-75
2021/03/25 10:59:22;;;;;;;19.48;12.65;;;21.10;42.80;;;;;;5011691;28;20030;-75
2021/03/25 11:01:51;;;;;;;17.35;12.95;;;20.70;43.90;;;;;;4995399;28;20077;-76
2021/03/25 11:04:35;;;;;;;15.23;11.73;;;20.40;44.70;;;;;;5012687;28;20030;-76
2021/03/25 11:07:18;;;;;;;16.58;11.18;;;20.10;45.40;;;;;;4995271;28;20393;-83
2021/03/25 11:09:59;;;;;;;15.75;10.80;;;20.00;45.70;;;;;;5012783;28;20033;-76
2021/03/25 11:12:34;;;;;;;16.58;10.68;;;19.70;46.40;;;;;;5012484;28;20109;-75
2021/03/25 11:15:07;;;;;;;15.10;10.52;;;19.50;46.70;;;;;;4995005;28;20105;-76
2021/03/25 11:17:39;;;;;;;13.85;10.00;;;19.30;46.90;;;;;;5012092;28;20053;-76
2021/03/25 11:20:08;;;;;;;14.82;9.02;;;19.10;47.70;;;;;;5012790;28;20033;-80
2021/03/25 11:22:34;;;;;;;10.50;8.07;;;18.90;48.10;;;;;;4995276;28;20050;-77
2021/03/25 11:25:03;;;;;;;9.45;7.75;;;18.70;48.30;;;;;;5012912;28;20536;-75
2021/03/25 11:27:30;;;;;;;11.63;8.15;;;18.70;48.70;;;;;;4994932;28;20034;-76
2021/03/25 11:30:04;;;;;;;11.77;9.25;;;18.90;48.80;;;;;;4995048;28;20080;-76
2021/03/25 11:32:37;;;;;;;10.88;8.50;;;19.00;48.70;;;;;;5012168;28;20034;-75
2021/03/25 11:35:32;;;;;;;11.55;8.23;;;19.30;48.50;;;;;;4994617;28;20034;-76
2021/03/25 11:38:25;;;;;;;11.75;8.95;;;19.50;48.20;;;;;;4976612;28;20038;-76
2021/03/25 11:40:53;;;;;;;15.02;9.43;;;19.70;48.30;;;;;;4995187;28;20030;-76
2021/03/25 11:43:23;;;;;;;14.80;10.25;;;19.70;48.00;;;;;;4993803;28;20092;-75
2021/03/25 11:45:54;;;;;;;15.13;10.90;;;19.70;48.00;;;;;;5012449;28;20026;-77
2021/03/25 11:48:26;;;;;;;13.40;10.80;;;19.80;48.20;;;;;;4977102;28;20045;-76
2021/03/25 11:50:55;;;;;;;14.70;12.00;;;19.90;48.00;;;;;;4994147;28;20029;-76
2021/03/25 11:53:47;;;;;;;14.60;11.00;;;19.80;47.80;;;;;;5011813;28;20037;-75
2021/03/25 11:56:27;;;;;;;17.90;10.18;;;19.60;48.40;;;;;;5001498;28;20092;-76
2021/03/25 11:59:13;;;;;;;12.88;9.45;;;19.60;48.40;;;;;;4994001;28;20390;-76
2021/03/25 12:01:39;;;;;;;12.48;9.85;;;19.40;48.50;;;;;;5011797;28;20046;-77
2021/03/25 12:04:15;;;;;;;10.43;8.63;;;19.40;49.30;;;;;;5011761;28;20067;-76
2021/03/25 12:07:13;;;;;;;11.48;8.93;;;19.50;48.60;;;;;;5012151;28;20076;-76
2021/03/25 12:10:24;;;;;;;12.98;10.15;;;19.40;48.60;;;;;;5011783;28;20061;-76
2021/03/25 12:12:50;;;;;;;11.50;10.18;;;19.30;48.90;;;;;;5007134;28;20068;-75
2021/03/25 12:15:16;;;;;;;12.90;8.80;;;19.30;48.90;;;;;;5011483;28;20467;-76
2021/03/25 12:17:57;;;;;;;12.48;9.98;;;19.20;49.00;;;;;;5011749;28;20428;-76
2021/03/25 12:20:36;;;;;;;16.20;9.27;;;19.20;49.10;;;;;;4994091;28;20022;-76
2021/03/25 12:23:14;;;;;;;13.88;11.05;;;19.20;49.30;;;;;;5011642;28;20022;-75
2021/03/25 12:25:39;;;;;;;14.10;10.60;;;19.30;49.10;;;;;;5011490;28;20226;-75
2021/03/25 12:28:06;;;;;;;13.45;11.10;;;19.20;49.40;;;;;;5011394;28;20037;-76
2021/03/25 12:30:31;;;;;;;12.85;9.85;;;19.30;49.60;;;;;;5011388;28;20071;-75
2021/03/25 12:32:57;;;;;;;11.15;9.38;;;19.30;49.80;;;;;;4994113;28;20029;-75
2021/03/25 12:35:23;;;;;;;13.02;9.82;;;19.50;49.60;;;;;;5010954;28;20380;-75
2021/03/25 12:37:50;;;;;;;11.90;9.30;;;19.50;49.30;;;;;;4994553;28;20030;-75
2021/03/25 12:40:18;;;;;;;11.73;8.43;;;19.60;48.90;;;;;;5011578;28;20073;-78
2021/03/25 12:42:44;;;;;;;11.63;8.20;;;19.60;49.00;;;;;;5012060;28;20034;-75
2021/03/25 12:45:28;;;;;;;11.40;8.05;;;19.40;48.80;;;;;;5012186;28;20041;-76
2021/03/25 12:47:54;;;;;;;8.13;5.82;;;19.00;49.40;;;;;;5011537;28;20026;-75
2021/03/25 12:50:20;;;;;;;5.57;4.68;;;18.60;50.40;;;;;;5011022;28;20088;-76
2021/03/25 12:52:46;;;;;;;7.00;4.85;;;18.20;51.30;;;;;;5012560;28;20117;-76
2021/03/25 12:55:12;;;;;;;6.85;5.35;;;17.80;52.30;;;;;;5012316;28;20109;-78
2021/03/25 12:57:37;;;;;;;8.38;6.07;;;17.50;53.50;;;;;;4977516;28;20631;-75
2021/03/25 13:00:11;;;;;;;7.35;6.20;;;17.20;54.20;;;;;;5011742;28;20065;-77
2021/03/25 13:02:36;;;;;;;6.90;6.20;;;17.00;54.90;;;;;;4992795;28;20112;-75
2021/03/25 13:05:03;;;;;;;11.20;6.60;;;16.80;55.70;;;;;;5013149;28;20034;-74
2021/03/25 13:07:29;;;;;;;12.95;7.30;;;16.70;56.30;;;;;;5011864;28;20073;-77
2021/03/25 13:09:55;;;;;;;7.55;6.22;;;16.60;56.90;;;;;;4993203;28;20061;-76
2021/03/25 13:12:26;;;;;;;9.27;7.03;;;16.60;57.00;;;;;;5011350;28;20034;-82
2021/03/25 13:14:51;;;;;;;10.63;7.63;;;16.70;57.20;;;;;;5011730;28;20434;-75